createdAt,value
2019-05-18T00:01:22.430Z,7.67
2019-05-18T00:03:51.171Z,6.20
2019-05-18T00:06:20.184Z,6.00
2019-05-18T00:08:49.411Z,6.73
2019-05-18T00:11:18.440Z,5.87
2019-05-18T00:13:47.089Z,5.20
2019-05-18T00:16:16.007Z,7.83
2019-05-18T00:18:44.830Z,4.77
2019-05-18T00:21:13.587Z,6.43
2019-05-18T00:23:42.244Z,4.77
2019-05-18T00:26:10.854Z,6.83
2019-05-18T00:28:40.070Z,4.70
2019-05-18T00:31:09.016Z,5.60
2019-05-18T00:33:37.782Z,5.33
2019-05-18T00:36:06.603Z,4.87
2019-05-18T00:38:35.604Z,6.23
2019-05-18T00:41:04.268Z,5.17
2019-05-18T00:43:33.854Z,5.03
2019-05-18T00:46:02.527Z,5.30
2019-05-18T00:48:31.526Z,6.17
2019-05-18T00:51:00.260Z,5.47
2019-05-18T00:53:29.021Z,5.40
2019-05-18T00:55:58.021Z,5.80
2019-05-18T00:58:26.681Z,4.87
2019-05-18T01:00:55.314Z,5.60
2019-05-18T01:03:23.942Z,4.80
2019-05-18T01:05:52.783Z,5.27
2019-05-18T01:08:21.433Z,5.63
2019-05-18T01:10:50.333Z,6.40
2019-05-18T01:13:19.088Z,8.30
2019-05-18T01:15:47.718Z,6.17
2019-05-18T01:18:16.347Z,10.60
2019-05-18T01:20:46.238Z,8.93
2019-05-18T01:23:15.383Z,7.07
2019-05-18T01:25:44.319Z,10.10
2019-05-18T01:28:13.087Z,5.73
2019-05-18T01:30:41.899Z,9.90
2019-05-18T01:33:11.105Z,8.50
2019-05-18T01:35:39.782Z,7.13
2019-05-18T01:38:08.398Z,6.93
2019-05-18T01:40:37.046Z,7.80
2019-05-18T01:43:05.900Z,6.90
2019-05-18T01:45:34.894Z,6.57
2019-05-18T01:48:13.205Z,6.40
2019-05-18T01:50:34.514Z,9.43
2019-05-18T01:53:03.564Z,7.00
2019-05-18T01:55:32.218Z,8.30
2019-05-18T01:58:01.031Z,9.33
2019-05-18T02:00:29.851Z,9.90
2019-05-18T02:02:58.501Z,11.63
2019-05-18T02:05:27.131Z,8.57
2019-05-18T02:07:56.151Z,8.83
2019-05-18T02:10:24.831Z,10.77
2019-05-18T02:12:53.647Z,9.10
2019-05-18T02:15:22.474Z,10.53
2019-05-18T02:17:51.096Z,8.93
2019-05-18T02:20:19.855Z,10.10
2019-05-18T02:22:48.859Z,11.13
2019-05-18T02:25:17.936Z,11.90
2019-05-18T02:27:47.011Z,12.07
2019-05-18T02:30:17.534Z,15.33
2019-05-18T02:32:46.842Z,13.43
2019-05-18T02:35:16.455Z,13.07
2019-05-18T02:37:45.130Z,14.87
2019-05-18T02:40:14.181Z,13.87
2019-05-18T02:42:43.006Z,15.47
2019-05-18T02:45:12.319Z,13.33
2019-05-18T02:47:41.034Z,11.47
2019-05-18T02:50:09.984Z,13.77
2019-05-18T02:52:38.722Z,10.87
2019-05-18T02:55:08.134Z,15.83
2019-05-18T02:57:36.793Z,11.33
2019-05-18T03:00:06.765Z,10.33
2019-05-18T03:02:35.407Z,9.90
2019-05-18T03:05:04.383Z,10.70
2019-05-18T03:07:33.452Z,9.90
2019-05-18T03:10:02.390Z,10.87
2019-05-18T03:12:31.506Z,12.70
2019-05-18T03:15:00.193Z,13.83
2019-05-18T03:17:29.010Z,12.50
2019-05-18T03:19:57.911Z,12.97
2019-05-18T03:22:26.664Z,15.97
2019-05-18T03:24:55.865Z,16.40
2019-05-18T03:27:24.904Z,13.27
2019-05-18T03:29:53.935Z,13.83
2019-05-18T03:32:22.598Z,14.60
2019-05-18T03:34:51.240Z,15.07
2019-05-18T03:37:20.248Z,16.73
2019-05-18T03:39:49.265Z,17.57
2019-05-18T03:42:17.924Z,15.60
2019-05-18T03:44:46.771Z,19.50
2019-05-18T03:47:15.966Z,17.70
2019-05-18T03:49:44.987Z,15.83
2019-05-18T03:52:13.643Z,15.70
2019-05-18T03:54:42.846Z,15.17
2019-05-18T03:57:11.784Z,12.93
2019-05-18T03:59:40.911Z,14.03
2019-05-18T04:02:09.943Z,16.77
2019-05-18T04:04:39.357Z,19.33
2019-05-18T04:07:08.018Z,16.37
2019-05-18T04:09:36.651Z,19.90
2019-05-18T04:12:05.856Z,16.83
2019-05-18T04:14:34.898Z,18.83
2019-05-18T04:17:03.934Z,15.50
2019-05-18T04:19:45.558Z,17.73
2019-05-18T04:22:02.999Z,16.33
2019-05-18T04:24:31.816Z,16.37
2019-05-18T04:27:01.015Z,17.90
2019-05-18T04:29:29.675Z,14.60
2019-05-18T04:31:58.930Z,18.10
2019-05-18T04:34:27.918Z,15.53
2019-05-18T04:36:56.583Z,16.03
2019-05-18T04:39:25.231Z,16.50
2019-05-18T04:41:54.039Z,17.67
2019-05-18T04:44:22.692Z,20.07
2019-05-18T04:46:51.339Z,15.83
2019-05-18T04:49:20.147Z,15.23
2019-05-18T04:51:48.781Z,18.33
2019-05-18T04:54:17.420Z,15.67
2019-05-18T04:56:46.039Z,17.87
2019-05-18T04:59:15.257Z,14.97
2019-05-18T05:01:43.948Z,16.03
2019-05-18T05:04:12.761Z,12.97
2019-05-18T05:06:41.956Z,14.47
2019-05-18T05:09:10.616Z,13.33
2019-05-18T05:11:39.485Z,15.07
2019-05-18T05:14:08.468Z,16.53
2019-05-18T05:16:37.486Z,15.93
2019-05-18T05:19:08.641Z,15.90
2019-05-18T05:21:37.112Z,13.47
2019-05-18T05:24:06.095Z,14.40
2019-05-18T05:26:34.815Z,14.57
2019-05-18T05:29:03.659Z,14.47
2019-05-18T05:31:32.517Z,13.77
2019-05-18T05:34:01.399Z,15.43
2019-05-18T05:36:30.511Z,15.23
2019-05-18T05:38:59.226Z,13.93
2019-05-18T05:41:28.477Z,15.50
2019-05-18T05:43:57.790Z,15.37
2019-05-18T05:46:26.454Z,18.53
2019-05-18T05:48:55.082Z,15.00
2019-05-18T05:51:23.976Z,17.83
2019-05-18T05:53:52.757Z,16.80
2019-05-18T05:56:21.615Z,15.27
2019-05-18T05:58:50.429Z,16.63
2019-05-18T06:01:19.621Z,15.43
2019-05-18T06:03:48.561Z,15.20
2019-05-18T06:06:17.886Z,17.13
2019-05-18T06:08:47.107Z,16.33
2019-05-18T06:11:15.810Z,18.10
2019-05-18T06:13:44.612Z,19.10
2019-05-18T06:16:13.798Z,16.10
2019-05-18T06:18:42.834Z,14.47
2019-05-18T06:21:11.497Z,14.40
2019-05-18T06:23:40.137Z,14.97
2019-05-18T06:26:09.330Z,14.80
2019-05-18T06:28:38.362Z,13.47
2019-05-18T06:31:07.064Z,15.07
2019-05-18T06:33:35.899Z,12.73
2019-05-18T06:36:05.249Z,11.77
2019-05-18T06:38:34.282Z,10.27
2019-05-18T06:41:03.146Z,9.50
2019-05-18T06:43:32.149Z,10.20
2019-05-18T06:46:00.818Z,11.53
2019-05-18T06:48:29.643Z,12.43
2019-05-18T06:51:06.849Z,10.97
2019-05-18T06:53:29.051Z,10.03
2019-05-18T06:55:57.699Z,8.83
2019-05-18T06:58:26.920Z,10.63
2019-05-18T07:00:55.851Z,8.07
2019-05-18T07:03:24.638Z,7.67
2019-05-18T07:05:53.691Z,6.97
2019-05-18T07:08:22.481Z,8.83
2019-05-18T07:10:51.303Z,8.00
2019-05-18T07:13:20.211Z,9.20
2019-05-18T07:15:48.982Z,8.70
2019-05-18T07:18:17.813Z,11.97
2019-05-18T07:20:46.807Z,10.17
2019-05-18T07:23:15.838Z,7.83
2019-05-18T07:25:44.477Z,7.80
2019-05-18T07:28:13.134Z,11.30
2019-05-18T07:30:42.329Z,6.30
2019-05-18T07:33:11.374Z,8.27
2019-05-18T07:35:40.397Z,10.07
2019-05-18T07:38:09.100Z,11.27
2019-05-18T07:40:37.896Z,9.00
2019-05-18T07:43:06.742Z,8.20
2019-05-18T07:45:35.583Z,8.20
2019-05-18T07:48:04.761Z,11.37
2019-05-18T07:50:33.786Z,7.63
2019-05-18T07:53:02.666Z,8.70
2019-05-18T07:55:31.465Z,6.00
2019-05-18T07:58:00.392Z,6.47
2019-05-18T08:00:29.511Z,12.13
2019-05-18T08:02:58.159Z,6.77
2019-05-18T08:05:27.102Z,6.67
2019-05-18T08:07:55.837Z,6.47
2019-05-18T08:10:43.848Z,6.30
2019-05-18T08:13:13.245Z,6.17
2019-05-18T08:15:42.006Z,5.80
2019-05-18T08:18:11.007Z,6.87
2019-05-18T08:20:39.687Z,5.47
2019-05-18T08:23:08.496Z,5.33
2019-05-18T08:25:37.329Z,6.83
2019-05-18T08:28:06.526Z,5.37
2019-05-18T08:30:35.202Z,4.87
2019-05-18T08:33:03.921Z,5.50
2019-05-18T08:35:32.656Z,4.50
2019-05-18T08:38:01.867Z,5.13
2019-05-18T08:40:30.514Z,4.87
2019-05-18T08:42:59.159Z,3.33
2019-05-18T08:45:28.357Z,3.37
2019-05-18T08:47:57.198Z,5.37
2019-05-18T08:50:26.130Z,4.73
2019-05-18T08:52:55.255Z,3.80
2019-05-18T08:55:24.282Z,4.60
2019-05-18T08:57:53.507Z,4.17
2019-05-18T09:00:22.539Z,4.57
2019-05-18T09:02:51.201Z,4.83
2019-05-18T09:05:20.117Z,4.70
2019-05-18T09:07:49.817Z,4.50
2019-05-18T09:10:18.860Z,3.63
2019-05-18T09:12:47.524Z,3.43
2019-05-18T09:15:16.712Z,4.77
2019-05-18T09:17:45.655Z,3.40
2019-05-18T09:20:14.969Z,4.10
2019-05-18T09:22:43.809Z,5.40
2019-05-18T09:25:12.812Z,3.80
2019-05-18T09:27:42.057Z,4.43
2019-05-18T09:30:10.855Z,4.83
2019-05-18T09:32:39.826Z,3.93
2019-05-18T09:35:08.967Z,4.10
2019-05-18T09:37:37.802Z,3.50
2019-05-18T09:40:06.997Z,4.10
2019-05-18T09:42:36.049Z,5.17
2019-05-18T09:45:04.987Z,4.53
2019-05-18T09:47:34.300Z,3.57
2019-05-18T09:50:03.944Z,3.80
2019-05-18T09:52:44.132Z,4.60
2019-05-18T09:55:03.544Z,4.13
2019-05-18T09:57:32.909Z,3.83
2019-05-18T10:00:02.194Z,4.20
2019-05-18T10:02:31.419Z,2.93
2019-05-18T10:05:00.566Z,2.70
2019-05-18T10:07:29.392Z,2.70
2019-05-18T10:09:58.516Z,2.43
2019-05-18T10:12:27.477Z,2.23
2019-05-18T10:14:56.768Z,3.93
2019-05-18T10:17:25.443Z,2.13
2019-05-18T10:19:54.642Z,2.63
2019-05-18T10:22:23.314Z,2.30
2019-05-18T10:24:52.497Z,1.83
2019-05-18T10:27:21.258Z,2.70
2019-05-18T10:29:50.551Z,2.00
2019-05-18T10:32:19.592Z,2.57
2019-05-18T10:34:48.279Z,2.30
2019-05-18T10:37:17.290Z,2.60
2019-05-18T10:39:46.222Z,1.93
2019-05-18T10:42:15.309Z,1.70
2019-05-18T10:44:44.436Z,2.00
2019-05-18T10:47:13.239Z,1.87
2019-05-18T10:49:42.238Z,2.17
2019-05-18T10:52:10.604Z,2.60
2019-05-18T10:54:39.277Z,1.43
2019-05-18T10:57:08.503Z,1.60
2019-05-18T10:59:38.122Z,2.47
2019-05-18T11:02:07.679Z,1.53
2019-05-18T11:04:36.797Z,0.90
2019-05-18T11:07:06.606Z,2.23
2019-05-18T11:09:35.631Z,3.07
2019-05-18T11:12:04.718Z,1.53
2019-05-18T11:14:33.016Z,1.30
2019-05-18T11:17:01.356Z,1.53
2019-05-18T11:19:30.250Z,0.80
2019-05-18T11:21:59.019Z,0.90
2019-05-18T11:24:28.415Z,1.43
2019-05-18T11:26:57.063Z,1.63
2019-05-18T11:29:25.753Z,1.63
2019-05-18T11:31:54.651Z,2.10
2019-05-18T11:34:23.460Z,1.80
2019-05-18T11:36:52.591Z,2.50
2019-05-18T11:39:21.423Z,1.60
2019-05-18T11:41:50.647Z,2.00
2019-05-18T11:44:20.055Z,1.50
2019-05-18T11:46:48.976Z,1.50
2019-05-18T11:49:17.742Z,1.80
2019-05-18T11:51:46.858Z,1.77
2019-05-18T11:54:15.919Z,2.00
2019-05-18T11:56:44.780Z,2.07
2019-05-18T11:59:15.680Z,3.10
2019-05-18T12:01:44.233Z,2.40
2019-05-18T12:04:12.942Z,2.07
2019-05-18T12:06:42.069Z,2.77
2019-05-18T12:09:11.839Z,2.20
2019-05-18T12:11:40.915Z,1.77
2019-05-18T12:14:09.645Z,2.13
2019-05-18T12:16:38.831Z,1.70
2019-05-18T12:19:07.502Z,1.90
2019-05-18T12:21:36.498Z,2.20
2019-05-18T12:24:14.613Z,2.23
2019-05-18T12:26:35.787Z,1.40
2019-05-18T12:29:04.957Z,3.03
2019-05-18T12:31:33.625Z,2.77
2019-05-18T12:34:02.492Z,3.00
2019-05-18T12:36:30.838Z,1.50
2019-05-18T12:38:59.584Z,1.37
2019-05-18T12:41:31.681Z,1.63
2019-05-18T12:44:00.387Z,2.27
2019-05-18T12:46:29.181Z,1.67
2019-05-18T12:48:57.999Z,1.87
2019-05-18T12:51:27.214Z,2.70
2019-05-18T12:53:56.142Z,2.47
2019-05-18T12:56:25.269Z,1.33
2019-05-18T12:58:53.930Z,1.60
2019-05-18T13:01:22.768Z,1.67
2019-05-18T13:03:51.880Z,2.47
2019-05-18T13:06:20.615Z,2.10
2019-05-18T13:08:49.584Z,1.50
2019-05-18T13:11:18.528Z,2.07
2019-05-18T13:13:47.485Z,3.90
2019-05-18T13:16:16.427Z,1.40
2019-05-18T13:18:45.552Z,1.83
2019-05-18T13:21:14.202Z,1.60
2019-05-18T13:23:43.226Z,2.97
2019-05-18T13:26:11.866Z,2.57
2019-05-18T13:28:40.518Z,1.67
2019-05-18T13:31:09.428Z,1.80
2019-05-18T13:33:39.349Z,1.27
2019-05-18T13:36:08.368Z,1.53
2019-05-18T13:38:37.034Z,2.10
2019-05-18T13:41:05.652Z,1.67
2019-05-18T13:43:34.675Z,2.57
2019-05-18T13:46:03.312Z,1.40
2019-05-18T13:48:31.979Z,1.20
2019-05-18T13:51:00.778Z,2.13
2019-05-18T13:53:29.707Z,1.80
2019-05-18T13:55:58.634Z,1.43
2019-05-18T13:58:27.290Z,1.10
2019-05-18T14:00:57.083Z,1.83
2019-05-18T14:03:25.756Z,1.40
2019-05-18T14:05:54.662Z,1.70
2019-05-18T14:08:23.663Z,2.10
2019-05-18T14:10:52.435Z,1.00
2019-05-18T14:13:57.527Z,3.80
2019-05-18T14:16:26.383Z,1.13
2019-05-18T14:18:55.514Z,1.23
2019-05-18T14:21:24.520Z,1.10
2019-05-18T14:23:53.551Z,1.27
2019-05-18T14:26:22.184Z,2.63
2019-05-18T14:28:51.217Z,1.30
2019-05-18T14:31:19.888Z,1.43
2019-05-18T14:33:48.880Z,1.53
2019-05-18T14:36:17.555Z,1.40
2019-05-18T14:38:46.426Z,1.83
2019-05-18T14:41:15.216Z,1.20
2019-05-18T14:43:44.415Z,1.10
2019-05-18T14:46:13.630Z,1.73
2019-05-18T14:48:42.300Z,2.17
2019-05-18T14:51:11.604Z,1.20
2019-05-18T14:53:40.354Z,3.37
2019-05-18T14:56:09.269Z,1.30
2019-05-18T14:58:38.200Z,2.27
2019-05-18T15:01:07.322Z,4.77
2019-05-18T15:03:36.252Z,1.20
2019-05-18T15:06:05.291Z,1.60
2019-05-18T15:08:33.935Z,3.57
2019-05-18T15:11:03.142Z,2.67
2019-05-18T15:13:31.988Z,1.77
2019-05-18T15:16:01.010Z,1.70
2019-05-18T15:18:30.272Z,1.57
2019-05-18T15:20:59.459Z,1.40
2019-05-18T15:23:28.144Z,2.10
2019-05-18T15:25:57.231Z,1.70
2019-05-18T15:28:26.067Z,2.83
2019-05-18T15:30:55.286Z,1.13
2019-05-18T15:33:24.428Z,1.00
2019-05-18T15:35:53.440Z,3.07
2019-05-18T15:38:22.291Z,1.10
2019-05-18T15:40:51.124Z,1.10
2019-05-18T15:43:19.759Z,1.20
2019-05-18T15:45:48.675Z,1.10
2019-05-18T15:48:17.817Z,1.07
2019-05-18T15:50:46.744Z,0.80
2019-05-18T15:53:15.504Z,1.13
2019-05-18T15:55:44.124Z,1.17
2019-05-18T15:58:13.144Z,1.57
2019-05-18T16:00:41.787Z,1.00
2019-05-18T16:03:10.993Z,1.40
2019-05-18T16:05:40.137Z,1.20
2019-05-18T16:08:08.920Z,1.90
2019-05-18T16:10:37.796Z,2.20
2019-05-18T16:13:06.630Z,1.20
2019-05-18T16:15:35.561Z,1.90
2019-05-18T16:18:04.408Z,0.90
2019-05-18T16:20:33.039Z,1.30
2019-05-18T16:23:02.293Z,1.50
2019-05-18T16:25:31.674Z,2.00
2019-05-18T16:28:00.928Z,1.40
2019-05-18T16:30:29.799Z,1.63
2019-05-18T16:32:58.968Z,1.57
2019-05-18T16:35:28.405Z,2.13
2019-05-18T16:37:57.604Z,2.00
2019-05-18T16:40:26.283Z,2.53
2019-05-18T16:42:55.087Z,3.17
2019-05-18T16:45:24.299Z,3.07
2019-05-18T16:47:53.330Z,1.80
2019-05-18T16:50:22.315Z,2.53
2019-05-18T16:52:51.079Z,9.10
2019-05-18T16:55:20.614Z,2.67
2019-05-18T16:57:49.585Z,1.50
2019-05-18T17:00:19.676Z,1.77
2019-05-18T17:02:48.599Z,5.07
2019-05-18T17:05:17.632Z,2.63
2019-05-18T17:07:46.759Z,1.93
2019-05-18T17:10:15.975Z,2.07
2019-05-18T17:12:45.011Z,1.50
2019-05-18T17:15:13.976Z,1.57
2019-05-18T17:17:43.197Z,1.70
2019-05-18T17:20:12.337Z,2.27
2019-05-18T17:22:41.219Z,1.53
2019-05-18T17:25:10.454Z,3.67
2019-05-18T17:27:39.584Z,3.57
2019-05-18T17:30:08.735Z,2.07
2019-05-18T17:32:37.465Z,1.93
2019-05-18T17:35:07.321Z,1.90
2019-05-18T17:37:36.140Z,2.50
2019-05-18T17:40:05.707Z,3.23
2019-05-18T17:42:34.642Z,3.00
2019-05-18T17:45:03.826Z,50.60
2019-05-18T17:47:32.640Z,43.17
2019-05-18T17:50:01.825Z,70.50
2019-05-18T17:52:30.869Z,15.53
2019-05-18T17:54:59.970Z,9.90
2019-05-18T17:57:29.115Z,10.67
2019-05-18T17:59:58.180Z,3.67
2019-05-18T18:02:26.998Z,4.10
2019-05-18T18:04:56.593Z,24.53
2019-05-18T18:07:25.452Z,9.50
2019-05-18T18:09:54.900Z,6.40
2019-05-18T18:12:23.733Z,11.27
2019-05-18T18:14:53.100Z,7.00
2019-05-18T18:17:22.137Z,6.00
2019-05-18T18:19:51.365Z,4.63
2019-05-18T18:22:23.608Z,4.73
2019-05-18T18:24:51.027Z,4.67
2019-05-18T18:27:25.293Z,3.60
2019-05-18T18:29:50.933Z,4.00
2019-05-18T18:32:19.955Z,4.20
2019-05-18T18:34:48.716Z,4.30
2019-05-18T18:37:17.751Z,6.13
2019-05-18T18:39:47.305Z,5.00
2019-05-18T18:42:16.287Z,5.43
2019-05-18T18:44:45.015Z,3.30
2019-05-18T18:47:13.743Z,2.93
2019-05-18T18:49:42.494Z,3.03
2019-05-18T18:52:11.690Z,2.47
2019-05-18T18:54:40.528Z,2.53
2019-05-18T18:57:09.202Z,3.63
2019-05-18T18:59:38.068Z,4.00
2019-05-18T19:02:07.625Z,3.80
2019-05-18T19:04:36.317Z,3.30
2019-05-18T19:07:05.115Z,3.47
2019-05-18T19:09:34.503Z,3.10
2019-05-18T19:12:03.171Z,3.17
2019-05-18T19:14:32.175Z,3.50
2019-05-18T19:17:00.845Z,7.17
2019-05-18T19:19:29.678Z,6.17
2019-05-18T19:21:58.774Z,6.70
2019-05-18T19:24:27.907Z,3.93
2019-05-18T19:26:57.125Z,4.70
2019-05-18T19:29:25.783Z,3.70
2019-05-18T19:31:54.796Z,3.10
2019-05-18T19:34:23.459Z,3.03
2019-05-18T19:36:52.460Z,3.23
2019-05-18T19:39:21.110Z,2.60
2019-05-18T19:41:50.313Z,3.20
2019-05-18T19:44:19.249Z,2.27
2019-05-18T19:46:48.379Z,2.60
2019-05-18T19:49:17.606Z,2.87
2019-05-18T19:51:46.259Z,3.47
2019-05-18T19:54:15.464Z,2.43
2019-05-18T19:56:44.548Z,2.80
2019-05-18T19:59:13.629Z,3.20
2019-05-18T20:01:42.388Z,2.20
2019-05-18T20:04:11.396Z,2.97
2019-05-18T20:06:40.217Z,3.30
2019-05-18T20:09:09.028Z,3.70
2019-05-18T20:11:37.722Z,3.83
2019-05-18T20:14:06.634Z,3.03
2019-05-18T20:16:35.507Z,3.20
2019-05-18T20:19:04.780Z,3.20
2019-05-18T20:21:33.516Z,3.40
2019-05-18T20:24:02.280Z,3.17
2019-05-18T20:26:31.188Z,3.03
2019-05-18T20:29:00.316Z,2.10
2019-05-18T20:31:28.976Z,5.60
2019-05-18T20:33:57.980Z,4.63
2019-05-18T20:36:26.630Z,4.70
2019-05-18T20:38:55.348Z,5.87
2019-05-18T20:41:24.103Z,5.33
2019-05-18T20:43:53.111Z,4.23
2019-05-18T20:46:21.776Z,3.60
2019-05-18T20:48:50.774Z,5.30
2019-05-18T20:51:19.423Z,5.10
2019-05-18T20:53:48.067Z,4.40
2019-05-18T20:56:17.081Z,3.87
2019-05-18T20:58:45.734Z,5.10
2019-05-18T21:01:14.378Z,3.27
2019-05-18T21:03:43.378Z,2.70
2019-05-18T21:06:12.313Z,1.87
2019-05-18T21:08:41.640Z,2.10
2019-05-18T21:11:10.824Z,2.93
2019-05-18T21:13:39.896Z,2.40
2019-05-18T21:16:09.116Z,5.60
2019-05-18T21:18:38.316Z,12.93
2019-05-18T21:21:07.379Z,17.60
2019-05-18T21:23:36.660Z,13.77
2019-05-18T21:26:05.826Z,21.20
2019-05-18T21:28:34.862Z,8.57
2019-05-18T21:31:03.508Z,5.63
2019-05-18T21:33:32.523Z,4.90
2019-05-18T21:36:01.557Z,8.20
2019-05-18T21:38:30.492Z,12.27
2019-05-18T21:40:59.236Z,9.80
2019-05-18T21:43:27.947Z,9.43
2019-05-18T21:45:56.722Z,47.07
2019-05-18T21:48:25.562Z,32.43
2019-05-18T21:50:54.490Z,22.83
2019-05-18T21:53:23.614Z,13.63
2019-05-18T21:55:52.802Z,11.33
2019-05-18T21:58:21.495Z,7.40
2019-05-18T22:00:50.690Z,8.00
2019-05-18T22:03:19.703Z,20.93
2019-05-18T22:05:48.730Z,38.30
2019-05-18T22:08:18.257Z,44.30
2019-05-18T22:10:47.407Z,25.30
2019-05-18T22:13:16.413Z,15.07
2019-05-18T22:15:45.629Z,21.50
2019-05-18T22:18:24.099Z,20.40
2019-05-18T22:20:45.475Z,13.77
2019-05-18T22:23:14.191Z,16.83
2019-05-18T22:25:43.238Z,13.17
2019-05-18T22:28:12.270Z,7.50
2019-05-18T22:30:41.407Z,7.63
2019-05-18T22:33:10.532Z,3.27
2019-05-18T22:35:39.284Z,3.60
2019-05-18T22:38:08.301Z,4.10
2019-05-18T22:40:36.963Z,3.67
2019-05-18T22:43:05.818Z,3.87
2019-05-18T22:45:34.614Z,3.80
2019-05-18T22:48:03.623Z,5.73
2019-05-18T22:50:32.292Z,6.10
2019-05-18T22:53:02.058Z,2.80
2019-05-18T22:55:31.091Z,2.70
2019-05-18T22:57:59.743Z,2.10
2019-05-18T23:00:28.861Z,3.43
2019-05-18T23:02:57.615Z,4.93
2019-05-18T23:05:26.619Z,4.20
2019-05-18T23:07:55.841Z,4.03
2019-05-18T23:10:24.875Z,2.83
2019-05-18T23:12:54.111Z,2.80
2019-05-18T23:15:22.784Z,3.13
2019-05-18T23:17:51.600Z,3.80
2019-05-18T23:20:20.798Z,3.87
2019-05-18T23:22:49.637Z,3.83
2019-05-18T23:25:18.297Z,2.97
2019-05-18T23:27:46.922Z,5.63
2019-05-18T23:30:16.334Z,3.30
2019-05-18T23:32:45.256Z,3.50
2019-05-18T23:35:14.295Z,3.67
2019-05-18T23:37:43.419Z,7.80
2019-05-18T23:40:12.593Z,6.07
2019-05-18T23:42:41.675Z,3.63
2019-05-18T23:45:10.799Z,3.87
2019-05-18T23:47:40.139Z,2.80
2019-05-18T23:50:09.109Z,2.83
2019-05-18T23:52:38.183Z,3.20
2019-05-18T23:55:07.011Z,3.63
2019-05-18T23:57:35.886Z,3.77
